Time;durP1;ratioP1;P1;durP2;ratioP2;P2;SDS_P1;SDS_P2;PMS_P1;PMS_P2;Temp;Humidity;BMP_temperature;BMP_pressure;BME280_temperature;BME280_humidity;BME280_pressure;Samples;Min_cycle;Max_cycle;Signal;HPM_P1;HPM_P2
2023/11/08 00:02:12;;;;;;;2.45;2.35;;;;;;;;;;4990565;28;20528;-77
2023/11/08 00:04:38;;;;;;;2.90;2.70;;;;;;;;;;4973602;28;20085;-76
2023/11/08 00:07:04;;;;;;;2.72;2.53;;;;;;;;;;4991756;28;20492;-76
2023/11/08 00:09:31;;;;;;;3.25;2.80;;;;;;;;;;4994933;28;20496;-75
2023/11/08 00:11:58;;;;;;;3.60;3.10;;;;;;;;;;5018362;28;20026;-76
2023/11/08 00:14:24;;;;;;;3.20;3.00;;;;;;;;;;4989627;28;20046;-76
2023/11/08 00:16:51;;;;;;;2.90;2.70;;;;;;;;;;4973652;28;20096;-77
2023/11/08 00:19:17;;;;;;;4.75;3.08;;;;;;;;;;4990459;28;20077;-78
2023/11/08 00:21:43;;;;;;;3.90;2.88;;;;;;;;;;4990388;28;20065;-78
2023/11/08 00:24:09;;;;;;;4.15;2.75;;;;;;;;;;4990835;28;20038;-78
2023/11/08 00:26:35;;;;;;;5.47;3.35;;;;;;;;;;4973405;28;20034;-78
2023/11/08 00:29:01;;;;;;;4.50;2.78;;;;;;;;;;5002221;28;20424;-79
2023/11/08 00:31:27;;;;;;;2.97;2.78;;;;;;;;;;4994890;28;20057;-78
2023/11/08 00:33:53;;;;;;;7.45;2.88;;;;;;;;;;4991575;28;20046;-78
2023/11/08 00:36:19;;;;;;;4.68;2.97;;;;;;;;;;4993587;28;20527;-78
2023/11/08 00:38:48;;;;;;;4.85;2.25;;;;;;;;;;4994755;28;20088;-77
2023/11/08 00:41:14;;;;;;;4.53;2.78;;;;;;;;;;5007355;28;20052;-78
2023/11/08 00:43:41;;;;;;;3.40;2.92;;;;;;;;;;4977346;28;20066;-78
2023/11/08 00:46:08;;;;;;;2.90;2.70;;;;;;;;;;4977474;28;20037;-79
2023/11/08 00:48:34;;;;;;;2.05;1.95;;;;;;;;;;4994558;28;20112;-79
2023/11/08 00:51:01;;;;;;;5.07;3.55;;;;;;;;;;4994846;28;20093;-77
2023/11/08 00:53:27;;;;;;;2.92;2.72;;;;;;;;;;5009405;28;20054;-78
2023/11/08 00:55:53;;;;;;;3.00;2.75;;;;;;;;;;4994510;28;20034;-78
2023/11/08 00:58:19;;;;;;;3.05;2.85;;;;;;;;;;4977381;28;20061;-77
2023/11/08 01:00:45;;;;;;;3.03;2.80;;;;;;;;;;4994572;28;20031;-77
2023/11/08 01:03:12;;;;;;;3.08;2.72;;;;;;;;;;4974443;28;20041;-78
2023/11/08 01:05:38;;;;;;;3.15;2.75;;;;;;;;;;4995717;28;20103;-78
2023/11/08 01:08:04;;;;;;;5.03;3.33;;;;;;;;;;4963518;28;20057;-78
2023/11/08 01:10:30;;;;;;;3.25;3.05;;;;;;;;;;5010647;28;20026;-77
2023/11/08 01:12:57;;;;;;;3.00;2.80;;;;;;;;;;4982221;28;20512;-78
2023/11/08 01:15:23;;;;;;;4.28;3.22;;;;;;;;;;5009791;28;20033;-79
2023/11/08 01:17:49;;;;;;;3.38;3.08;;;;;;;;;;5011981;28;20113;-79
2023/11/08 01:20:15;;;;;;;3.05;2.85;;;;;;;;;;4997564;28;20058;-77
2023/11/08 01:22:41;;;;;;;2.90;2.70;;;;;;;;;;5011920;28;20089;-79
2023/11/08 01:25:08;;;;;;;2.88;2.67;;;;;;;;;;4993180;28;20038;-79
2023/11/08 01:27:34;;;;;;;3.90;2.47;;;;;;;;;;4994858;28;20121;-80
2023/11/08 01:30:02;;;;;;;3.17;2.60;;;;;;;;;;5001880;28;20088;-80
2023/11/08 01:32:30;;;;;;;4.53;3.28;;;;;;;;;;5001187;28;20508;-80
2023/11/08 01:34:56;;;;;;;2.53;2.38;;;;;;;;;;4983241;28;20246;-80
2023/11/08 01:37:22;;;;;;;2.90;2.63;;;;;;;;;;4993993;28;20095;-79
2023/11/08 01:39:48;;;;;;;4.25;2.67;;;;;;;;;;4976657;28;20068;-79
2023/11/08 01:42:17;;;;;;;3.95;2.75;;;;;;;;;;4991802;28;20038;-77
2023/11/08 01:44:43;;;;;;;3.03;2.83;;;;;;;;;;4993013;28;20037;-78
2023/11/08 01:47:09;;;;;;;6.32;3.22;;;;;;;;;;4975963;28;20034;-78
2023/11/08 01:49:35;;;;;;;4.22;3.63;;;;;;;;;;5007050;28;20125;-77
2023/11/08 01:52:02;;;;;;;3.40;3.10;;;;;;;;;;4992911;28;20307;-77
2023/11/08 01:54:28;;;;;;;3.80;3.50;;;;;;;;;;4975850;28;20030;-79
2023/11/08 01:56:54;;;;;;;6.57;3.95;;;;;;;;;;4993621;28;20420;-78
2023/11/08 01:59:21;;;;;;;5.40;4.45;;;;;;;;;;5008923;28;20026;-78
2023/11/08 02:01:48;;;;;;;3.60;3.38;;;;;;;;;;4976581;28;20130;-79
2023/11/08 02:04:14;;;;;;;5.45;4.85;;;;;;;;;;4992383;28;20069;-78
2023/11/08 02:06:40;;;;;;;3.92;3.63;;;;;;;;;;5008017;28;20050;-79
2023/11/08 02:09:06;;;;;;;6.50;4.90;;;;;;;;;;5005860;28;20080;-78
2023/11/08 02:11:33;;;;;;;7.25;4.80;;;;;;;;;;4998627;28;20034;-81
2023/11/08 02:13:59;;;;;;;4.15;3.67;;;;;;;;;;5002337;28;20034;-80
2023/11/08 02:16:25;;;;;;;3.67;3.35;;;;;;;;;;5017474;28;20030;-78
2023/11/08 02:18:51;;;;;;;3.72;3.42;;;;;;;;;;5016039;28;20080;-77
2023/11/08 02:21:17;;;;;;;4.38;3.97;;;;;;;;;;4998165;28;20083;-79
2023/11/08 02:23:43;;;;;;;4.07;3.70;;;;;;;;;;5014894;28;20064;-78
2023/11/08 02:26:10;;;;;;;4.28;3.88;;;;;;;;;;4994975;28;20045;-77
2023/11/08 02:28:36;;;;;;;4.35;3.95;;;;;;;;;;4995620;28;20050;-77
2023/11/08 02:31:03;;;;;;;5.10;3.80;;;;;;;;;;4994267;28;20057;-79
2023/11/08 02:33:29;;;;;;;4.18;3.53;;;;;;;;;;4992582;28;20049;-78
2023/11/08 02:35:57;;;;;;;4.68;3.40;;;;;;;;;;4992627;28;20040;-79
2023/11/08 02:38:24;;;;;;;4.47;3.92;;;;;;;;;;4976966;28;20209;-79
2023/11/08 02:40:50;;;;;;;5.18;4.03;;;;;;;;;;4977242;28;20134;-80
2023/11/08 02:43:16;;;;;;;4.78;4.00;;;;;;;;;;4991446;28;20046;-80
2023/11/08 02:45:42;;;;;;;2.92;2.75;;;;;;;;;;4994025;28;20030;-80
2023/11/08 02:48:08;;;;;;;3.05;2.47;;;;;;;;;;4995228;28;20105;-79
2023/11/08 02:50:36;;;;;;;4.25;3.85;;;;;;;;;;4995838;28;20038;-80
2023/11/08 02:53:02;;;;;;;5.47;4.50;;;;;;;;;;4980248;28;20117;-80
2023/11/08 02:55:28;;;;;;;5.97;4.18;;;;;;;;;;4988376;28;20065;-81
2023/11/08 02:57:54;;;;;;;4.50;4.10;;;;;;;;;;5004902;28;20041;-80
2023/11/08 03:00:20;;;;;;;4.88;4.43;;;;;;;;;;5002829;28;20349;-82
2023/11/08 03:02:47;;;;;;;4.65;4.22;;;;;;;;;;5010728;28;20052;-81
2023/11/08 03:05:13;;;;;;;4.82;4.32;;;;;;;;;;5015039;28;20038;-80
2023/11/08 03:07:39;;;;;;;3.65;3.35;;;;;;;;;;5006221;28;20038;-78
2023/11/08 03:10:08;;;;;;;7.63;4.55;;;;;;;;;;5009132;28;20038;-81
2023/11/08 03:12:35;;;;;;;7.05;5.07;;;;;;;;;;5007954;28;20044;-81
2023/11/08 03:15:01;;;;;;;5.03;4.70;;;;;;;;;;5004611;28;20034;-81
2023/11/08 03:17:27;;;;;;;6.85;5.40;;;;;;;;;;4983738;28;20053;-81
2023/11/08 03:19:53;;;;;;;7.80;5.25;;;;;;;;;;4982696;28;20898;-80
2023/11/08 03:22:19;;;;;;;6.90;4.82;;;;;;;;;;5000222;28;20083;-80
2023/11/08 03:24:45;;;;;;;6.35;5.57;;;;;;;;;;5009365;28;20071;-80
2023/11/08 03:27:12;;;;;;;6.00;5.40;;;;;;;;;;5017245;28;20121;-78
2023/11/08 03:29:37;;;;;;;6.43;5.45;;;;;;;;;;5002233;28;20101;-80
2023/11/08 03:32:04;;;;;;;6.80;6.10;;;;;;;;;;4985699;28;20444;-81
2023/11/08 03:34:30;;;;;;;8.15;6.40;;;;;;;;;;5000362;28;20042;-80
2023/11/08 03:36:56;;;;;;;11.60;6.57;;;;;;;;;;4985427;28;20104;-80
2023/11/08 03:39:22;;;;;;;9.60;7.18;;;;;;;;;;4999154;28;20085;-81
2023/11/08 03:41:48;;;;;;;5.13;4.68;;;;;;;;;;4999241;28;20046;-81
2023/11/08 03:44:14;;;;;;;8.23;5.38;;;;;;;;;;4996055;28;20517;-80
2023/11/08 03:46:42;;;;;;;7.65;6.53;;;;;;;;;;4995047;28;20038;-79
2023/11/08 03:49:08;;;;;;;6.85;4.80;;;;;;;;;;4993675;28;20050;-80
2023/11/08 03:51:34;;;;;;;6.68;5.15;;;;;;;;;;4993790;28;20033;-80
2023/11/08 03:54:01;;;;;;;5.78;5.18;;;;;;;;;;4992534;28;20815;-81
2023/11/08 03:56:27;;;;;;;10.73;5.45;;;;;;;;;;4992853;28;20026;-81
2023/11/08 03:58:53;;;;;;;8.75;4.78;;;;;;;;;;4976200;28;20066;-81
2023/11/08 04:01:19;;;;;;;7.53;6.22;;;;;;;;;;5000745;28;20038;-80
2023/11/08 04:03:46;;;;;;;7.07;6.35;;;;;;;;;;5003630;28;20054;-81
2023/11/08 04:06:12;;;;;;;7.75;4.45;;;;;;;;;;5008990;28;20613;-80
2023/11/08 04:08:38;;;;;;;8.75;6.10;;;;;;;;;;4991638;28;20062;-82
2023/11/08 04:11:04;;;;;;;8.48;6.80;;;;;;;;;;5006724;28;20082;-81
2023/11/08 04:13:30;;;;;;;8.07;5.97;;;;;;;;;;5005992;28;20042;-81
2023/11/08 04:15:56;;;;;;;7.40;6.20;;;;;;;;;;5003125;28;20033;-81
2023/11/08 04:18:22;;;;;;;8.02;7.10;;;;;;;;;;5001275;28;20066;-81
2023/11/08 04:20:48;;;;;;;8.02;6.20;;;;;;;;;;5010838;28;20452;-81
2023/11/08 04:23:15;;;;;;;7.78;5.45;;;;;;;;;;4990944;28;20137;-79
2023/11/08 04:25:44;;;;;;;7.55;6.80;;;;;;;;;;4995401;28;20097;-80
2023/11/08 04:28:10;;;;;;;6.82;5.47;;;;;;;;;;4994261;28;20058;-78
2023/11/08 04:30:36;;;;;;;5.43;4.28;;;;;;;;;;4979660;28;20344;-79
2023/11/08 04:33:02;;;;;;;7.45;6.45;;;;;;;;;;4989100;28;20535;-80
2023/11/08 04:35:28;;;;;;;6.55;5.97;;;;;;;;;;4995605;28;20035;-81
2023/11/08 04:37:54;;;;;;;6.47;5.88;;;;;;;;;;5000342;28;20042;-80
2023/11/08 04:40:22;;;;;;;8.30;5.75;;;;;;;;;;5007209;28;20035;-83
2023/11/08 04:42:48;;;;;;;5.70;5.20;;;;;;;;;;5009622;28;20582;-83
2023/11/08 04:45:15;;;;;;;9.55;6.05;;;;;;;;;;5012466;28;20090;-84
2023/11/08 04:47:41;;;;;;;9.73;6.88;;;;;;;;;;5016518;28;20102;-82
2023/11/08 04:50:07;;;;;;;5.10;4.72;;;;;;;;;;4995777;28;20034;-83
2023/11/08 04:52:33;;;;;;;6.70;6.05;;;;;;;;;;5013570;28;20034;-83
2023/11/08 04:54:59;;;;;;;9.18;6.70;;;;;;;;;;5012913;28;20026;-82
2023/11/08 04:57:25;;;;;;;9.70;7.32;;;;;;;;;;4997846;28;20041;-83
2023/11/08 04:59:51;;;;;;;8.13;7.15;;;;;;;;;;5000410;28;20025;-81
2023/11/08 05:02:21;;;;;;;11.60;7.15;;;;;;;;;;5016442;28;20030;-82
2023/11/08 05:04:50;;;;;;;10.88;8.95;;;;;;;;;;4997020;28;20126;-83
2023/11/08 05:07:19;;;;;;;12.80;7.80;;;;;;;;;;5011720;28;20036;-82
2023/11/08 05:09:45;;;;;;;12.05;6.60;;;;;;;;;;5010878;28;20062;-81
2023/11/08 05:12:15;;;;;;;5.82;5.35;;;;;;;;;;5009513;28;20095;-80
2023/11/08 05:14:42;;;;;;;8.27;6.97;;;;;;;;;;4992690;28;20073;-82
2023/11/08 05:17:07;;;;;;;9.07;5.57;;;;;;;;;;5011283;28;20552;-82
2023/11/08 05:19:33;;;;;;;8.95;6.45;;;;;;;;;;4993223;28;20041;-81
2023/11/08 05:22:00;;;;;;;7.63;6.93;;;;;;;;;;5010553;28;20054;-81
2023/11/08 05:24:27;;;;;;;10.80;7.10;;;;;;;;;;5015416;28;20029;-82
2023/11/08 05:26:53;;;;;;;14.38;7.53;;;;;;;;;;5011454;28;20045;-81
2023/11/08 05:29:19;;;;;;;11.25;6.68;;;;;;;;;;5029743;28;20109;-83
2023/11/08 05:31:47;;;;;;;9.43;6.80;;;;;;;;;;5004388;28;20547;-83
2023/11/08 05:34:13;;;;;;;7.07;6.38;;;;;;;;;;5016614;28;20049;-82
2023/11/08 05:36:40;;;;;;;7.35;6.63;;;;;;;;;;5014790;28;20408;-83
2023/11/08 05:39:06;;;;;;;6.13;5.18;;;;;;;;;;4995081;28;20112;-83
2023/11/08 05:41:32;;;;;;;6.97;6.28;;;;;;;;;;5011186;28;20037;-82
2023/11/08 05:43:59;;;;;;;5.97;5.05;;;;;;;;;;5009778;28;20032;-82
2023/11/08 05:46:25;;;;;;;7.07;5.93;;;;;;;;;;5014062;28;20034;-82
2023/11/08 05:48:51;;;;;;;10.70;7.75;;;;;;;;;;5017681;28;20034;-83
2023/11/08 05:51:17;;;;;;;9.13;7.47;;;;;;;;;;5012410;28;20105;-83
2023/11/08 05:53:43;;;;;;;8.02;7.25;;;;;;;;;;4986249;28;20531;-82
2023/11/08 05:56:10;;;;;;;8.63;6.80;;;;;;;;;;5018867;28;20034;-80
2023/11/08 05:58:35;;;;;;;6.18;5.65;;;;;;;;;;5017203;28;20030;-79
2023/11/08 06:01:02;;;;;;;8.63;7.38;;;;;;;;;;5003868;28;20034;-79
2023/11/08 06:03:29;;;;;;;10.32;6.28;;;;;;;;;;5005642;28;20038;-78
2023/11/08 06:05:55;;;;;;;5.47;4.93;;;;;;;;;;5012288;28;20042;-79
2023/11/08 06:08:21;;;;;;;6.95;6.28;;;;;;;;;;4994930;28;20046;-75
2023/11/08 06:10:48;;;;;;;5.93;5.43;;;;;;;;;;4990653;28;20080;-79
2023/11/08 06:13:14;;;;;;;7.03;6.20;;;;;;;;;;5007078;28;20065;-80
2023/11/08 06:15:41;;;;;;;5.55;5.05;;;;;;;;;;5019912;28;20133;-78
2023/11/08 06:18:08;;;;;;;6.30;5.80;;;;;;;;;;5014021;28;20093;-81
2023/11/08 06:20:35;;;;;;;5.50;5.00;;;;;;;;;;4978500;28;20061;-79
2023/11/08 06:23:02;;;;;;;6.15;5.25;;;;;;;;;;4977645;28;20045;-79
2023/11/08 06:25:32;;;;;;;6.85;4.35;;;;;;;;;;4978546;28;20046;-79
2023/11/08 06:27:59;;;;;;;8.30;5.25;;;;;;;;;;4998191;28;20050;-80
2023/11/08 06:30:25;;;;;;;6.05;4.25;;;;;;;;;;5003931;28;20068;-80
2023/11/08 06:32:51;;;;;;;5.07;4.55;;;;;;;;;;4986212;28;20093;-81
2023/11/08 06:35:17;;;;;;;4.85;4.47;;;;;;;;;;4986718;28;20053;-81
2023/11/08 06:37:43;;;;;;;9.73;4.25;;;;;;;;;;4983672;28;20046;-82
2023/11/08 06:40:10;;;;;;;7.53;5.07;;;;;;;;;;4987938;28;20034;-79
2023/11/08 06:42:37;;;;;;;6.15;5.47;;;;;;;;;;5002183;28;20040;-80
2023/11/08 06:45:07;;;;;;;4.55;4.15;;;;;;;;;;5001614;28;20061;-79
2023/11/08 06:47:33;;;;;;;5.72;5.25;;;;;;;;;;5009655;28;20038;-80
2023/11/08 06:49:59;;;;;;;4.85;4.45;;;;;;;;;;5011989;28;20041;-83
2023/11/08 06:52:26;;;;;;;6.70;5.25;;;;;;;;;;5005108;28;20440;-82
2023/11/08 06:54:52;;;;;;;5.05;4.65;;;;;;;;;;5013730;28;20102;-79
2023/11/08 07:28:11;;;;;;;7.10;4.90;;;;;;;;;;4994719;28;20054;-78
2023/11/08 07:30:40;;;;;;;4.30;3.90;;;;;;;;;;5000965;28;20083;-78
2023/11/08 07:33:06;;;;;;;4.90;4.30;;;;;;;;;;4977592;28;20532;-77
2023/11/08 07:35:32;;;;;;;4.75;4.35;;;;;;;;;;4996999;28;20034;-77
2023/11/08 07:37:58;;;;;;;4.50;4.20;;;;;;;;;;5000108;28;20026;-79
2023/11/08 07:40:24;;;;;;;6.32;4.30;;;;;;;;;;4990697;28;20583;-76
2023/11/08 07:42:50;;;;;;;3.55;3.25;;;;;;;;;;4984192;28;20022;-78
2023/11/08 07:45:16;;;;;;;5.28;4.78;;;;;;;;;;4972496;28;20068;-77
2023/11/08 07:47:43;;;;;;;5.70;4.82;;;;;;;;;;4987941;28;20035;-78
2023/11/08 07:50:11;;;;;;;3.58;3.28;;;;;;;;;;4988452;28;20049;-77
2023/11/08 07:52:37;;;;;;;4.13;3.83;;;;;;;;;;4988418;28;20035;-78
2023/11/08 07:55:05;;;;;;;7.95;3.92;;;;;;;;;;4988354;28;20169;-78
2023/11/08 07:57:31;;;;;;;4.05;3.67;;;;;;;;;;4988240;28;20035;-78
2023/11/08 07:59:57;;;;;;;8.95;4.80;;;;;;;;;;4986626;28;20045;-77
2023/11/08 08:02:23;;;;;;;4.32;4.03;;;;;;;;;;4990424;28;20039;-78
2023/11/08 08:04:48;;;;;;;7.70;5.60;;;;;;;;;;4989708;28;20190;-79
2023/11/08 08:07:15;;;;;;;4.50;4.13;;;;;;;;;;4990085;28;20073;-78
2023/11/08 08:09:41;;;;;;;4.10;3.70;;;;;;;;;;4971074;28;20050;-78
2023/11/08 08:12:07;;;;;;;4.00;3.58;;;;;;;;;;4970591;28;20045;-76
2023/11/08 08:14:33;;;;;;;4.22;3.80;;;;;;;;;;4981615;28;20528;-75
2023/11/08 08:17:02;;;;;;;3.80;2.55;;;;;;;;;;4982120;28;20058;-75
2023/11/08 08:19:31;;;;;;;3.83;3.53;;;;;;;;;;4966431;28;20038;-75
2023/11/08 08:22:00;;;;;;;3.83;3.47;;;;;;;;;;4971226;28;20042;-77
2023/11/08 08:24:26;;;;;;;6.97;3.88;;;;;;;;;;4971544;28;20033;-78
2023/11/08 08:26:52;;;;;;;4.60;4.22;;;;;;;;;;4968694;28;20061;-77
2023/11/08 08:29:20;;;;;;;7.35;4.80;;;;;;;;;;4988878;28;20046;-76
2023/11/08 08:31:46;;;;;;;6.07;4.28;;;;;;;;;;4989660;28;20030;-78
2023/11/08 08:34:14;;;;;;;13.55;4.93;;;;;;;;;;4955962;28;20095;-76
2023/11/08 08:36:41;;;;;;;5.82;4.40;;;;;;;;;;4989098;28;20038;-76
2023/11/08 08:39:07;;;;;;;23.23;5.20;;;;;;;;;;4989616;28;20073;-77
2023/11/08 08:41:33;;;;;;;8.27;4.45;;;;;;;;;;4990356;28;20049;-78
2023/11/08 08:43:59;;;;;;;5.43;3.63;;;;;;;;;;4990205;28;20101;-79
2023/11/08 08:46:26;;;;;;;8.93;4.28;;;;;;;;;;5001757;28;20091;-78
2023/11/08 08:48:52;;;;;;;7.40;3.97;;;;;;;;;;5015483;28;20050;-78
2023/11/08 08:51:18;;;;;;;4.68;3.90;;;;;;;;;;5009241;28;20459;-78
2023/11/08 08:53:44;;;;;;;5.70;4.75;;;;;;;;;;4989656;28;20030;-77
2023/11/08 08:56:11;;;;;;;5.03;3.60;;;;;;;;;;5015007;28;20490;-77
2023/11/08 08:58:37;;;;;;;10.90;5.85;;;;;;;;;;5014472;28;20026;-78
2023/11/08 09:01:04;;;;;;;10.30;5.82;;;;;;;;;;5012103;28;20034;-77
2023/11/08 09:03:32;;;;;;;3.92;3.63;;;;;;;;;;4976704;28;20117;-79
2023/11/08 09:05:58;;;;;;;7.28;5.78;;;;;;;;;;4977332;28;20027;-78
2023/11/08 09:08:24;;;;;;;6.38;5.13;;;;;;;;;;4994923;28;20104;-79
2023/11/08 09:10:50;;;;;;;5.53;4.63;;;;;;;;;;5003475;28;20496;-81
2023/11/08 09:13:16;;;;;;;4.55;4.15;;;;;;;;;;5001414;28;20030;-77
2023/11/08 09:15:42;;;;;;;5.78;4.68;;;;;;;;;;5003117;28;20042;-80
2023/11/08 09:18:08;;;;;;;4.88;3.47;;;;;;;;;;5005273;28;20113;-83
2023/11/08 09:20:34;;;;;;;5.72;4.55;;;;;;;;;;5026497;28;20085;-81
2023/11/08 09:23:00;;;;;;;4.82;4.28;;;;;;;;;;5017654;28;20112;-82
2023/11/08 09:25:27;;;;;;;4.95;3.83;;;;;;;;;;4987821;28;20175;-80
2023/11/08 09:27:53;;;;;;;3.40;3.10;;;;;;;;;;4966065;28;20166;-80
2023/11/08 09:30:19;;;;;;;4.85;3.90;;;;;;;;;;4983996;28;20603;-82
2023/11/08 09:32:45;;;;;;;5.00;4.60;;;;;;;;;;4981268;28;20027;-80
2023/11/08 09:35:12;;;;;;;5.03;3.78;;;;;;;;;;4978141;28;20038;-80
2023/11/08 09:37:38;;;;;;;4.10;3.75;;;;;;;;;;4986086;28;20041;-81
2023/11/08 09:40:09;;;;;;;4.80;3.90;;;;;;;;;;4983302;28;20046;-81
2023/11/08 09:42:35;;;;;;;8.05;4.53;;;;;;;;;;4996719;28;20035;-80
2023/11/08 09:45:02;;;;;;;7.55;3.42;;;;;;;;;;4970552;28;20081;-79
2023/11/08 09:47:30;;;;;;;6.38;4.32;;;;;;;;;;5005569;28;20113;-82
2023/11/08 09:49:56;;;;;;;2.50;2.40;;;;;;;;;;5003938;28;20042;-75
2023/11/08 09:52:22;;;;;;;3.42;3.13;;;;;;;;;;4982819;28;20034;-81
2023/11/08 09:54:48;;;;;;;4.22;3.92;;;;;;;;;;4983015;28;20057;-80
2023/11/08 09:57:14;;;;;;;3.38;3.15;;;;;;;;;;4994061;28;20504;-79
2023/11/08 09:59:40;;;;;;;3.78;3.47;;;;;;;;;;4994100;28;20069;-82
2023/11/08 10:02:06;;;;;;;6.95;4.40;;;;;;;;;;4993592;28;20042;-83
2023/11/08 10:04:33;;;;;;;4.18;3.80;;;;;;;;;;4996030;28;20037;-81
2023/11/08 10:06:59;;;;;;;3.50;3.20;;;;;;;;;;4987083;28;20078;-81
2023/11/08 10:09:31;;;;;;;3.22;2.92;;;;;;;;;;4996057;28;20046;-80
2023/11/08 10:11:58;;;;;;;6.80;4.35;;;;;;;;;;4991012;28;20035;-80
2023/11/08 10:14:31;;;;;;;4.50;4.10;;;;;;;;;;4995086;28;20038;-81
2023/11/08 10:16:57;;;;;;;4.88;4.45;;;;;;;;;;5005355;28;20089;-81
2023/11/08 10:19:37;;;;;;;6.20;4.95;;;;;;;;;;5005051;28;20022;-81
2023/11/08 10:22:03;;;;;;;4.57;4.17;;;;;;;;;;5005580;28;20042;-82
2023/11/08 10:24:29;;;;;;;4.70;4.38;;;;;;;;;;4994807;28;20018;-82
2023/11/08 10:27:09;;;;;;;5.13;3.97;;;;;;;;;;5006085;28;20058;-80
2023/11/08 10:29:35;;;;;;;4.50;3.55;;;;;;;;;;5008623;28;20069;-81
2023/11/08 10:32:02;;;;;;;5.60;4.57;;;;;;;;;;4998029;28;20045;-81
2023/11/08 10:34:28;;;;;;;4.65;3.95;;;;;;;;;;5014883;28;20143;-82
2023/11/08 10:36:54;;;;;;;6.13;3.63;;;;;;;;;;5016357;28;20022;-80
2023/11/08 10:39:20;;;;;;;3.78;3.45;;;;;;;;;;5013902;28;20523;-82
2023/11/08 10:41:49;;;;;;;4.57;4.28;;;;;;;;;;5012426;28;20034;-85
2023/11/08 10:44:21;;;;;;;3.60;3.30;;;;;;;;;;5016055;28;20034;-80
2023/11/08 10:46:57;;;;;;;6.15;4.45;;;;;;;;;;5009476;28;20034;-81
2023/11/08 10:49:23;;;;;;;4.82;4.45;;;;;;;;;;4984977;28;20065;-82
2023/11/08 10:51:50;;;;;;;6.38;4.43;;;;;;;;;;4983782;28;20081;-82
2023/11/08 10:54:16;;;;;;;5.90;4.45;;;;;;;;;;5001431;28;20042;-81
2023/11/08 10:56:43;;;;;;;5.18;4.20;;;;;;;;;;5003759;28;20050;-82
2023/11/08 10:59:10;;;;;;;4.95;4.28;;;;;;;;;;5004515;28;20045;-81
2023/11/08 11:01:41;;;;;;;5.82;4.13;;;;;;;;;;4986853;28;20035;-81
2023/11/08 11:04:11;;;;;;;6.47;3.88;;;;;;;;;;5004702;28;20038;-81
2023/11/08 11:06:37;;;;;;;6.13;4.55;;;;;;;;;;5004673;28;20044;-82
2023/11/08 11:09:10;;;;;;;6.13;4.72;;;;;;;;;;5004382;28;20073;-81
2023/11/08 11:11:43;;;;;;;5.68;4.10;;;;;;;;;;5005359;28;20030;-82
2023/11/08 11:14:21;;;;;;;7.78;4.85;;;;;;;;;;5005978;28;20839;-82
2023/11/08 11:16:49;;;;;;;4.53;4.07;;;;;;;;;;5007851;28;20112;-81
2023/11/08 11:19:15;;;;;;;7.15;4.78;;;;;;;;;;5006442;28;20049;-81
2023/11/08 11:21:46;;;;;;;9.85;4.40;;;;;;;;;;5009947;28;20039;-82
2023/11/08 11:24:12;;;;;;;;;;;;;;;;;;5007639;28;20038;-82
2023/11/08 11:26:43;;;;;;;7.93;5.10;;;;;;;;;;5008461;28;19956;-81
2023/11/08 11:29:16;;;;;;;6.57;4.18;;;;;;;;;;5009737;28;20097;-82
2023/11/08 11:31:42;;;;;;;6.10;3.90;;;;;;;;;;5008902;28;20041;-79
2023/11/08 11:34:21;;;;;;;9.02;5.13;;;;;;;;;;5007294;28;20038;-80
2023/11/08 11:37:12;;;;;;;6.68;4.75;;;;;;;;;;5005702;28;20038;-79
2023/11/08 11:40:08;;;;;;;6.05;3.95;;;;;;;;;;5006467;28;20045;-81
2023/11/08 11:42:34;;;;;;;6.13;4.20;;;;;;;;;;5012638;28;20034;-80
2023/11/08 11:45:02;;;;;;;5.07;4.30;;;;;;;;;;5015978;28;20058;-81
2023/11/08 11:47:29;;;;;;;6.55;3.70;;;;;;;;;;5015795;28;20025;-82
2023/11/08 11:50:00;;;;;;;3.70;3.30;;;;;;;;;;5011347;28;20054;-82
2023/11/08 11:52:27;;;;;;;8.65;4.15;;;;;;;;;;5007197;28;20041;-82
2023/11/08 11:54:55;;;;;;;11.00;4.40;;;;;;;;;;5000840;28;20525;-80
2023/11/08 11:57:22;;;;;;;4.82;4.05;;;;;;;;;;5000699;28;20045;-81
2023/11/08 11:59:49;;;;;;;6.88;4.50;;;;;;;;;;5004041;28;20038;-81
2023/11/08 12:02:15;;;;;;;8.90;4.55;;;;;;;;;;5006364;28;20042;-81
2023/11/08 12:04:41;;;;;;;4.75;4.10;;;;;;;;;;5006784;28;20034;-82
2023/11/08 12:07:09;;;;;;;5.95;4.75;;;;;;;;;;5008469;28;20038;-82
2023/11/08 12:09:36;;;;;;;6.32;4.75;;;;;;;;;;5006806;28;20074;-80
2023/11/08 12:12:03;;;;;;;6.80;4.75;;;;;;;;;;5009257;28;20053;-82
2023/11/08 12:14:29;;;;;;;5.28;4.78;;;;;;;;;;5008283;28;20098;-83
2023/11/08 12:16:55;;;;;;;5.25;4.70;;;;;;;;;;5008138;28;20041;-82
2023/11/08 12:19:21;;;;;;;6.10;4.82;;;;;;;;;;5007594;28;20031;-82
2023/11/08 12:21:47;;;;;;;5.53;4.68;;;;;;;;;;5006411;28;20042;-83
2023/11/08 12:24:14;;;;;;;6.70;4.65;;;;;;;;;;5006180;28;20089;-80
2023/11/08 12:26:40;;;;;;;6.65;4.70;;;;;;;;;;5009171;28;20058;-80
2023/11/08 12:29:06;;;;;;;8.55;4.95;;;;;;;;;;5009355;28;20018;-82
2023/11/08 12:31:34;;;;;;;6.00;5.15;;;;;;;;;;5010013;28;20037;-83
2023/11/08 12:34:03;;;;;;;10.05;5.30;;;;;;;;;;5012969;28;20038;-80
2023/11/08 12:36:29;;;;;;;7.35;4.75;;;;;;;;;;5010304;28;20039;-82
2023/11/08 12:38:55;;;;;;;4.93;4.43;;;;;;;;;;5007605;28;20101;-82
2023/11/08 12:41:21;;;;;;;7.45;4.97;;;;;;;;;;5001032;28;20053;-81
2023/11/08 12:43:58;;;;;;;11.30;5.32;;;;;;;;;;4990706;28;20102;-81
2023/11/08 12:46:24;;;;;;;6.55;4.40;;;;;;;;;;4985548;28;20030;-81
2023/11/08 12:48:57;;;;;;;9.50;5.47;;;;;;;;;;4991587;28;20050;-81
2023/11/08 12:51:32;;;;;;;10.18;5.25;;;;;;;;;;4998893;28;20520;-81
2023/11/08 12:54:01;;;;;;;8.80;5.05;;;;;;;;;;5008121;28;20045;-81
2023/11/08 12:56:35;;;;;;;5.55;4.95;;;;;;;;;;4986991;28;20476;-81
2023/11/08 12:59:11;;;;;;;6.85;4.28;;;;;;;;;;5008417;28;20060;-80
2023/11/08 13:01:38;;;;;;;5.53;4.22;;;;;;;;;;5010433;28;20041;-82
2023/11/08 13:04:05;;;;;;;12.68;5.78;;;;;;;;;;5009352;28;20114;-82
2023/11/08 13:06:31;;;;;;;6.57;4.30;;;;;;;;;;5010795;28;20038;-82
2023/11/08 13:08:57;;;;;;;5.18;4.28;;;;;;;;;;5006589;28;20054;-81
2023/11/08 13:11:23;;;;;;;5.32;4.82;;;;;;;;;;5003881;28;20117;-82
2023/11/08 13:13:51;;;;;;;5.05;4.50;;;;;;;;;;5007498;28;20034;-82
2023/11/08 13:16:17;;;;;;;9.68;5.00;;;;;;;;;;4988198;28;20203;-82
2023/11/08 13:18:43;;;;;;;10.07;5.00;;;;;;;;;;4955457;28;20058;-81
2023/11/08 13:21:10;;;;;;;9.27;4.68;;;;;;;;;;4982582;28;20026;-82
2023/11/08 13:23:36;;;;;;;7.45;4.50;;;;;;;;;;4988154;28;20417;-81
2023/11/08 13:26:03;;;;;;;7.30;4.93;;;;;;;;;;5001705;28;20034;-82
2023/11/08 13:28:29;;;;;;;6.13;4.85;;;;;;;;;;5008094;28;20061;-82
2023/11/08 13:30:55;;;;;;;9.00;6.25;;;;;;;;;;5004998;28;20043;-81
2023/11/08 13:33:21;;;;;;;12.73;7.20;;;;;;;;;;5007928;28;20034;-80
2023/11/08 13:35:47;;;;;;;8.40;5.63;;;;;;;;;;5005220;28;20560;-81
2023/11/08 13:38:14;;;;;;;8.25;6.35;;;;;;;;;;5003579;28;20709;-79
2023/11/08 13:40:40;;;;;;;6.35;5.38;;;;;;;;;;4999810;28;20034;-81
2023/11/08 13:43:05;;;;;;;10.18;5.70;;;;;;;;;;5005721;28;20053;-81
2023/11/08 13:45:32;;;;;;;11.25;5.97;;;;;;;;;;4986836;28;20033;-82
2023/11/08 13:47:58;;;;;;;9.23;6.32;;;;;;;;;;4972093;28;20034;-81
2023/11/08 13:50:24;;;;;;;8.25;5.90;;;;;;;;;;4999983;28;20504;-81
2023/11/08 13:52:51;;;;;;;7.88;6.10;;;;;;;;;;4985835;28;20295;-81
2023/11/08 13:55:17;;;;;;;7.57;5.43;;;;;;;;;;4998613;28;20173;-81
2023/11/08 13:57:44;;;;;;;5.55;5.15;;;;;;;;;;4986544;28;20511;-79
2023/11/08 14:00:11;;;;;;;8.77;5.20;;;;;;;;;;4983505;28;20030;-78
2023/11/08 14:02:42;;;;;;;7.23;6.57;;;;;;;;;;4982576;28;20026;-80
2023/11/08 14:05:08;;;;;;;9.02;6.45;;;;;;;;;;4984488;28;20402;-79
2023/11/08 14:07:34;;;;;;;13.70;6.00;;;;;;;;;;4981407;28;20030;-78
2023/11/08 14:10:00;;;;;;;7.40;6.03;;;;;;;;;;4976598;28;20516;-79
2023/11/08 14:12:29;;;;;;;11.50;7.00;;;;;;;;;;4984530;28;20500;-78
2023/11/08 14:14:55;;;;;;;13.57;6.10;;;;;;;;;;4983274;28;20050;-76
2023/11/08 14:17:21;;;;;;;7.22;6.00;;;;;;;;;;4981063;28;20027;-78
2023/11/08 14:19:49;;;;;;;7.93;4.97;;;;;;;;;;4980043;28;20501;-79
2023/11/08 14:22:15;;;;;;;9.50;4.97;;;;;;;;;;4980556;28;20544;-78
2023/11/08 14:24:41;;;;;;;9.30;5.38;;;;;;;;;;4975812;28;20038;-79
2023/11/08 14:27:07;;;;;;;6.45;5.78;;;;;;;;;;4987644;28;20054;-78
2023/11/08 14:29:33;;;;;;;12.15;6.90;;;;;;;;;;4982855;28;20132;-79
2023/11/08 14:31:59;;;;;;;7.95;5.60;;;;;;;;;;4989335;28;20034;-77
2023/11/08 14:34:26;;;;;;;6.18;5.47;;;;;;;;;;4988711;28;20046;-78
2023/11/08 14:36:52;;;;;;;9.55;6.13;;;;;;;;;;5003172;28;20007;-77
2023/11/08 14:39:18;;;;;;;14.00;6.65;;;;;;;;;;4992513;28;20081;-77
2023/11/08 14:41:44;;;;;;;5.25;4.28;;;;;;;;;;4987829;28;20026;-78
2023/11/08 14:44:10;;;;;;;8.63;6.10;;;;;;;;;;4982026;28;20045;-78
2023/11/08 14:46:37;;;;;;;8.48;5.93;;;;;;;;;;4983842;28;20034;-78
2023/11/08 14:49:04;;;;;;;12.95;6.70;;;;;;;;;;4981777;28;20042;-77
2023/11/08 14:51:30;;;;;;;7.72;6.05;;;;;;;;;;4981324;28;20030;-78
2023/11/08 14:53:57;;;;;;;11.05;6.47;;;;;;;;;;4983321;28;20038;-79
2023/11/08 14:56:23;;;;;;;29.08;6.40;;;;;;;;;;4980925;28;20497;-73
2023/11/08 14:58:50;;;;;;;5.47;5.03;;;;;;;;;;4982235;28;20042;-73
2023/11/08 15:01:16;;;;;;;8.80;5.53;;;;;;;;;;4979774;28;20042;-73
2023/11/08 15:03:42;;;;;;;6.20;5.45;;;;;;;;;;4965242;28;20063;-73
2023/11/08 15:06:08;;;;;;;10.88;5.85;;;;;;;;;;4982616;28;20096;-73
2023/11/08 15:08:34;;;;;;;9.70;6.00;;;;;;;;;;4961819;28;20128;-73
2023/11/08 15:11:00;;;;;;;8.98;5.88;;;;;;;;;;4962696;28;20105;-73
2023/11/08 15:13:26;;;;;;;11.80;5.65;;;;;;;;;;4971469;28;20501;-73